• Join FlightAware (Why Join?)
  • Login
  • US Flag 
02:32PM EST


 

Airport Tracker/Info


-or-


 

Live Flight TrackerFlight Track Log ✈ UAL1432 ✈ 18-Oct-2013 ✈ KCLE - KMCO

Flight Track Log - Related Links

Times and Time Zones

All times are in EDT time to prevent confusion due to time zone crossing. See the UAL1432 flight status page for this flight to view local times or setup timezone preferences in your user account.

Time Position Orientation Groundspeed Altitude Reporting Facility
EDT Latitude Longitude Course Direction KTS MPH feet Rate Location/Type
08:39AM 41.3861 -81.8828 212° Southwest 176 203 1,900  Level Cleveland Center
08:40AM 41.3453 -81.8989 197° South 216 249 3,200 2,340 Climbing Cleveland Center
08:41AM 41.0651 -81.8377 173° South  Level Estimated
08:41AM 41.2672 -81.9300 197° South 252 290 6,500  Level Cleveland Center
08:42AM 40.9504 -81.8320 207° Southwest  Level Estimated
08:42AM 41.1944 -81.9586 196° South 270 311 9,800  Level Cleveland Center
08:43AM 40.8697 -81.9402 225° Southwest  Level FlightAware Approximate
08:43AM 41.1131 -81.9919 197° South 302 348 11,500  Level Cleveland Center
08:44AM 40.7550 -81.9334 212° Southwest  Level Estimated
08:44AM 41.0172 -82.0117 189° South 343 395 14,300  Level Cleveland Center
08:45AM 40.9194 -82.0328 189° South 352 405 16,900 2,220 Climbing Cleveland Center
08:46AM 40.8303 -82.0944 208° Southwest 358 412 19,000 2,160 Climbing Cleveland Center
08:47AM 40.7250 -82.1703 209° Southwest 366 421 21,400 1,980 Climbing Cleveland Center
08:48AM 40.6478 -82.2292 210° Southwest 377 434 22,900 1,620 Climbing Indianapolis Center
08:49AM 40.5519 -82.3000 209° Southwest 391 450 24,600 1,500 Climbing Indianapolis Center
08:50AM 40.4539 -82.3711 209° Southwest 398 458 26,000 1,380 Climbing Indianapolis Center
08:51AM 40.3522 -82.4428 208° Southwest 409 471 27,500 1,380 Climbing Indianapolis Center
08:52AM 40.2514 -82.5164 209° Southwest 409 471 28,900 1,620 Climbing Indianapolis Center
08:53AM 40.1306 -82.5811 202° Southwest 414 476 30,900 1,560 Climbing Indianapolis Center
08:54AM 40.0069 -82.5689 176° South 443 510 32,200 1,260 Climbing Indianapolis Center
08:55AM 39.8844 -82.5517 174° South 441 507 33,500 1,020 Climbing Indianapolis Center
08:56AM 39.7639 -82.5350 174° South 436 502 34,400 720 Climbing Indianapolis Center
08:57AM 39.6422 -82.5183 174° South 438 504 35,000 240 Climbing Indianapolis Center
08:58AM 39.5194 -82.5003 174° South 440 506 35,000  Level Indianapolis Center
08:59AM 39.3978 -82.4861 175° South 440 506 35,000  Level Indianapolis Center
09:00AM 39.2689 -82.4669 173° South 434 499 35,000  Level Indianapolis Center
09:01AM 39.1500 -82.4517 174° South 431 496 35,000  Level Indianapolis Center
09:02AM 39.0308 -82.4342 173° South 431 496 35,000  Level Indianapolis Center
09:03AM 38.8881 -82.4153 174° South 431 496 35,000  Level Indianapolis Center
09:04AM 38.7694 -82.4003 174° South 430 495 35,000  Level Indianapolis Center
09:05AM 38.6500 -82.3839 174° South 432 497 35,000  Level Indianapolis Center
09:06AM 38.5319 -82.3692 174° South 429 494 35,000  Level Indianapolis Center
09:07AM 38.4122 -82.3519 174° South 433 498 35,000  Level Indianapolis Center
09:08AM 38.2931 -82.3375 175° South 431 496 35,000  Level Indianapolis Center
09:09AM 38.1503 -82.3172 174° South 432 497 35,000  Level Indianapolis Center
09:11AM 38.0311 -82.3042 175° South 426 490 35,000  Level Indianapolis Center
09:12AM 37.9119 -82.2875 174° South 428 493 35,000  Level Indianapolis Center
09:13AM 37.7919 -82.2703 174° South 433 498 35,000  Level Indianapolis Center
09:14AM 37.6728 -82.2547 174° South 430 495 35,000  Level Indianapolis Center
09:15AM 37.5544 -82.2408 175° South 426 490 35,000  Level Indianapolis Center
09:16AM 37.4358 -82.2258 174° South 426 490 35,000  Level Indianapolis Center
09:17AM 37.2944 -82.2086 174° South 432 497 35,000  Level Indianapolis Center
09:18AM 37.1739 -82.1919 174° South 432 497 35,000  Level Indianapolis Center
09:19AM 37.0497 -82.1594 168° South 463 533 35,000 60 Level Indianapolis Center
09:20AM 36.9278 -82.0886 155° Southeast 480 552 35,200 480 Climbing Indianapolis Center
09:21AM 36.8067 -82.0172 155° Southeast 478 550 36,000 360 Climbing Indianapolis Center
09:22AM 36.6856 -81.9478 155° Southeast 475 547 36,000  Level Indianapolis Center
09:23AM 36.5636 -81.8775 155° Southeast 480 552 36,000  Level Indianapolis Center
09:24AM 36.4233 -81.7958 155° Southeast 476 548 36,000  Level Indianapolis Center
09:25AM 36.3014 -81.7261 155° Southeast 477 549 36,000  Level Indianapolis Center
09:26AM 36.1669 -81.6725 162° South 474 545 36,000  Level Atlanta Center
09:27AM 36.0433 -81.6556 174° South 456 525 36,000  Level Atlanta Center
09:28AM 35.9203 -81.6439 176° South 451 519 36,000  Level Atlanta Center
09:29AM 35.7947 -81.6269 174° South 451 519 36,000  Level Atlanta Center
09:30AM 35.6650 -81.6131 175° South 458 527 36,000  Level Atlanta Center
09:31AM 35.5375 -81.6014 176° South 464 534 36,000  Level Atlanta Center
09:32AM 35.4100 -81.5850 174° South 464 534 36,000  Level Atlanta Center
09:33AM 35.2822 -81.5658 173° South 464 534 36,000  Level Atlanta Center
09:34AM 35.1569 -81.5517 175° South 457 526 36,000  Level Atlanta Center
09:35AM 35.0314 -81.5353 174° South 451 519 36,000  Level Atlanta Center
09:37AM 34.8469 -81.5089 173° South 446 513 36,000  Level Jacksonville Center
09:38AM 34.7236 -81.4956 175° South 452 520 36,000  Level Jacksonville Center
09:39AM 34.6025 -81.4825 175° South 446 513 36,000  Level Jacksonville Center
09:40AM 34.4794 -81.4669 174° South 446 513 36,000  Level Jacksonville Center
09:41AM 34.3561 -81.4539 175° South 446 513 36,000  Level Jacksonville Center
09:42AM 34.2328 -81.4383 174° South 446 513 36,000  Level Jacksonville Center
09:43AM 34.1075 -81.4228 174° South 446 513 36,000  Level Jacksonville Center
09:44AM 33.9842 -81.4075 174° South 446 513 36,000  Level Jacksonville Center
09:45AM 33.8567 -81.3944 175° South 452 520 36,000  Level Jacksonville Center
09:46AM 33.7292 -81.3792 174° South 458 527 36,000  Level Jacksonville Center
09:47AM 33.6017 -81.3639 174° South 464 534 36,000 -60 Level Jacksonville Center
09:48AM 33.4764 -81.3536 176° South 464 534 35,900  Descending Jacksonville Center
09:49AM 33.3489 -81.3386 174° South 464 534 36,000  Climbing Jacksonville Center
09:50AM 33.2236 -81.3258 175° South 464 534 36,000 -60 Level Jacksonville Center
09:51AM 33.0981 -81.3106 174° South 464 534 35,900  Descending Jacksonville Center
09:52AM 32.9728 -81.2956 174° South 459 528 36,000  Climbing Jacksonville Center
09:53AM 32.8494 -81.2828 175° South 459 528 36,000  Level Jacksonville Center
09:54AM 32.7239 -81.2678 174° South 459 528 36,000  Level Jacksonville Center
09:55AM 32.6131 -81.2550 174° South 448 516 36,000  Level Jacksonville Center
09:56AM 32.4772 -81.2403 175° South 443 510 36,000  Level Jacksonville Center
09:57AM 32.3478 -81.2278 175° South 456 525 36,000  Level Jacksonville Center
09:58AM 32.2203 -81.2228 178° South 461 531 36,000 -60 Level Jacksonville Center
09:59AM 32.0992 -81.2200 179° South 453 521 35,900 -60 Descending Jacksonville Center
10:00AM 31.9717 -81.2125 177° South 448 516 35,900  Level Jacksonville Center
10:01AM 31.8506 -81.2075 178° South 448 516 36,000  Climbing Jacksonville Center
10:02AM 31.7272 -81.2022 178° South 448 516 36,000 -300 Level Jacksonville Center
10:03AM 31.6144 -81.1969 178° South 447 514 35,400 -840 Descending Jacksonville Center
10:04AM 31.4767 -81.1922 178° South 447 514 34,400 -720 Descending Jacksonville Center
10:05AM 31.3597 -81.1869 178° South 463 533 34,000 -240 Descending Jacksonville Center
10:06AM 31.2344 -81.1869 180° South 463 533 34,000  Level Jacksonville Center
10:07AM 31.1069 -81.1819 178° South 458 527 34,000  Level Jacksonville Center
10:08AM 30.9772 -81.1747 177° South 458 527 34,000  Level Jacksonville Center
10:09AM 30.8542 -81.1697 178° South 458 527 34,000 -60 Level Jacksonville Center
10:10AM 30.7267 -81.1647 178° South 458 527 33,900  Descending Jacksonville Center
10:11AM 30.6033 -81.1597 178° South 458 527 34,000  Climbing Jacksonville Center
10:12AM 30.4781 -81.1547 178° South 458 527 34,000  Level Jacksonville Center
10:13AM 30.3528 -81.1522 179° South 458 527 34,000  Level Jacksonville Center
10:14AM 30.2275 -81.1472 178° South 458 527 34,000 -1,200 Level Jacksonville Center
10:15AM 30.0981 -81.1425 178° South 458 527 31,700 -2,700 Descending Jacksonville Center
10:16AM 29.9664 -81.1375 178° South 464 534 28,700 -2,700 Descending Jacksonville Center
10:17AM 29.8369 -81.1328 178° South 469 540 26,300 -2,280 Descending Jacksonville Center
10:18AM 29.7094 -81.1328 180° South 469 540 24,200 -2,280 Descending Jacksonville Center
10:19AM 29.5864 -81.1278 178° South 453 521 21,800 -2,340 Descending Jacksonville Center
10:20AM 29.4608 -81.1203 177° South 428 493 19,600 -2,160 Descending Jacksonville Center
10:21AM 29.3522 -81.1153 178° South 402 463 17,500 -2,220 Descending Jacksonville Center
10:22AM 29.2436 -81.1125 179° South 395 455 15,200 -2,220 Descending Jacksonville Center
10:23AM 29.1414 -81.1025 175° South 390 449 13,100 -1,500 Descending Jacksonville Center
10:24AM 29.0453 -81.0947 176° South 371 427 12,200 -900 Descending Jacksonville Center
10:25AM 28.9594 -81.0797 171° South 341 392 11,400 -1,260 Descending Jacksonville Center
10:26AM 28.8778 -81.0692 174° South 314 361 9,700 -1,740 Descending Jacksonville Center
10:26AM 28.8333 -81.0667 177° South 292 336 8,800 -1,800 Descending Orlando TRACON
10:27AM 28.7667 -81.0667 180° South 272 313 7,200 -1,320 Descending Orlando TRACON
10:28AM 28.7333 -81.1500 245° Southwest 255 293 6,300 -1,380 Descending Orlando TRACON
10:29AM 28.7167 -81.2167 254° West 226 260 4,300 -1,440 Descending Orlando TRACON
10:30AM 28.6667 -81.2667 221° Southwest 216 249 3,300 -720 Descending Orlando TRACON
10:31AM 28.6167 -81.3000 210° Southwest 210 242 2,800 -420 Descending Orlando TRACON
10:32AM 28.5667 -81.3167 196° South 186 214 2,500 -660 Descending Orlando TRACON
10:33AM 28.5167 -81.3333 196° South 164 189 1,600 -960 Descending Orlando TRACON
10:34AM 28.4667 -81.3333 180° South 158 182 500 -960 Descending Orlando TRACON